Repentigny, Canada
Current Conditions -  °F | °C
As of 5:00 AM on Friday 19 Dec 2014 (Local Time) from CYHU Reporting Station
Overcast Overcast  
Wind Chill: 21°   Ceiling: 2300
Heat Index: 27°   Visibility: 9mi
Dew Point: 19°   Wind: 5mph
Humidity: 74%   Direction: 320°NW
Pressure: 29.98"   Gusts: NA
Location:  45.73°N, 73.45°W
Report Text: CYHU 191000Z AUTO 32004KT 280V360 9SM OVC023 M03/M07 A2998 RMK SLP154
Loading
Personal Weather Stations






























Interactive Weather Map New forecast layout! Learn more

10-Day Weather Forecast

Advertisements
Track Severe Weather on mobile